MicroStrategy ROA 2010-2024 | MSTR

Current and historical return on assets (ROA) values for MicroStrategy (MSTR) over the last 10 years. Return on assets can be defined as an indicator of how profitable a company is relative to its total assets. Calculated by dividing a company's operating earnings by its total assets.
MicroStrategy ROA - Return on Assets Historical Data
Date TTM Net Income Total Assets Return on Assets
2024-03-31 $-0.09B $6.35B -1.90%
2023-12-31 $0.43B $4.76B 11.81%
2023-09-30 $0.09B $3.37B 2.96%
2023-06-30 $0.21B $3.36B 7.26%
2023-03-31 $-0.88B $3.03B -33.29%
2022-12-31 $-1.47B $2.41B -52.68%
2022-09-30 $-1.31B $2.55B -42.57%
2022-06-30 $-1.32B $2.57B -41.38%
2022-03-31 $-0.56B $3.64B -17.37%
2021-12-31 $-0.54B $3.56B -18.43%
2021-09-30 $-0.44B $2.99B -18.57%
2021-06-30 $-0.42B $2.62B -22.99%
2021-03-31 $-0.12B $2.44B -8.56%
2020-12-31 $-0.01B $1.47B -0.71%
2020-09-30 $0.00B $0.77B 0.24%
2020-06-30 $0.03B $0.83B 2.98%
2020-03-31 $0.04B $0.85B 4.84%
2019-12-31 $0.03B $0.92B 3.78%
2019-09-30 $0.03B $0.89B 2.83%
2019-06-30 $0.03B $0.90B 3.15%
2019-03-31 $0.01B $0.89B 1.45%
2018-12-31 $0.02B $0.86B 2.52%
2018-09-30 $-0.01B $0.91B -0.54%
2018-06-30 $-0.00B $0.93B 0.00%
2018-03-31 $0.00B $0.95B 0.57%
2017-12-31 $0.02B $0.93B 2.28%
2017-09-30 $0.08B $0.81B 9.60%
2017-06-30 $0.09B $0.80B 11.01%
2017-03-31 $0.09B $0.79B 12.53%
2016-12-31 $0.09B $0.77B 12.66%
2016-09-30 $0.10B $0.74B 14.16%
2016-06-30 $0.10B $0.71B 14.29%
2016-03-31 $0.10B $0.69B 15.30%
2015-12-31 $0.11B $0.66B 16.95%
2015-09-30 $0.09B $0.63B 14.96%
2015-06-30 $0.06B $0.61B 11.07%
2015-03-31 $0.03B $0.58B 5.64%
2014-12-31 $0.01B $0.56B 1.06%
2014-09-30 $-0.00B $0.56B -0.18%
2014-06-30 $0.02B $0.57B 2.99%
2014-03-31 $0.03B $0.57B 4.46%
2013-12-31 $0.08B $0.59B 14.95%
2013-09-30 $0.08B $0.55B 14.20%
2013-06-30 $0.06B $0.54B 12.50%
2013-03-31 $0.07B $0.55B 15.05%
2012-12-31 $0.02B $0.48B 4.41%
2012-09-30 $0.02B $0.46B 4.69%
2012-06-30 $0.02B $0.43B 4.80%
2012-03-31 $0.02B $0.45B 3.95%
2011-12-31 $0.02B $0.45B 4.32%
2011-09-30 $0.03B $0.42B 6.78%
2011-06-30 $0.03B $0.40B 7.56%
2011-03-31 $0.04B $0.39B 10.15%
2010-12-31 $0.04B $0.38B 11.91%
2010-09-30 $0.05B $0.36B 12.71%
2010-06-30 $0.06B $0.37B 16.60%
2010-03-31 $0.06B $0.38B 16.63%
2009-12-31 $0.08B $0.38B 22.26%
Sector Industry Market Cap Revenue
Computer and Technology Computer Software $29.885B $0.496B
MicroStrategy Incorporated, a leading worldwide provider of business intelligence software, today announced that GT Nexus has selected MicroStrategy to power the customer-facing analytics and reporting capabilities on its Global Logistics portal. The GT Nexus portal is an on demand technology platform that is used by importers, exporters, transportation carriers, suppliers, banks, and other partners to manage goods that are moving around the world. The GT Nexus system captures and stores hard-to-get data associated with global supply chains, and then fuels a range of Web applications that can be used by constituents to lower supply chain costs and improve control. MicroStrategy will help GT Nexus to deliver a wide range of analytics and reporting capabilities to its customers, which include Home Depot, Kmart, Xerox, Weyerhaeuser, and American Eagle Outfitters.
Stock Name Country Market Cap PE Ratio
Microsoft (MSFT) United States $3197.081B 37.24
Oracle (ORCL) United States $337.818B 27.50
Salesforce (CRM) United States $263.577B 44.06
Adobe (ADBE) United States $212.993B 35.61
Intuit (INTU) United States $169.682B 52.87
Synopsys (SNPS) United States $89.579B 62.03
Cadence Design Systems (CDNS) United States $80.084B 76.24
Dassault Systemes SA (DASTY) France $56.134B 36.47
Autodesk (ADSK) United States $46.304B 45.24
ANSYS (ANSS) United States $28.906B 53.49
PTC (PTC) United States $21.905B 58.10
SS&C Technologies Holdings (SSNC) United States $15.290B 14.48
Manhattan Associates (MANH) United States $14.046B 74.55
Descartes Systems Group (DSGX) Canada $8.546B 74.80
Open Text (OTEX) Canada $8.205B 8.26
Trend Micro (TMICY) Japan $6.572B 47.60
Pegasystems (PEGA) United States $5.096B 45.06
CommVault Systems (CVLT) United States $4.800B 78.44
Blackbaud (BLKB) United States $4.095B 35.25
ACI Worldwide (ACIW) United States $3.735B 17.89
Progress Software (PRGS) United States $2.174B 13.82
Verint Systems (VRNT) United States $1.911B 17.81
Sapiens (SPNS) Israel $1.880B 25.64
BlackBerry (BB) Canada $1.700B 0.00
PROS Holdings (PRO) United States $1.465B 0.00
Simulations Plus (SLP) United States $0.996B 73.28
Rand Worldwide (RWWI) United States $0.652B 0.00
Magic Software Enterprises (MGIC) Israel $0.522B 11.08
American Software (AMSWA) United States $0.355B 29.72
Canaan (CAN) China $0.245B 0.00
OptimizeRx (OPRX) United States $0.236B 0.00
Rigetti Computing (RGTI) United States $0.184B 0.00
Icad Inc (ICAD) United States $0.042B 0.00
Neonode (NEON) Sweden $0.037B 0.00
NetSol Technologies (NTWK) United States $0.030B 0.00
Smith Micro Software (SMSI) United States $0.024B 0.00
Hanryu Holdings (HRYU) South Korea $0.021B 0.00
Wetouch Technology (WETH) $0.020B 0.00
GSE Systems (GVP) United States $0.011B 0.00
SAP SE (SAP) Germany $0.000B 49.97